Time;durP1;ratioP1;P1;durP2;ratioP2;P2;SDS_P1;SDS_P2;PMS_P1;PMS_P2;Temp;Humidity;BMP_temperature;BMP_pressure;BME280_temperature;BME280_humidity;BME280_pressure;Samples;Min_cycle;Max_cycle;Signal;HPM_P1;HPM_P2
2023/03/20 00:00:30;;;;;;;4.20;3.57;;;8.20;91.20;;;;;;5034372;28;20410;-69
2023/03/20 00:02:56;;;;;;;5.37;4.50;;;8.20;79.80;;;;;;5052182;28;20866;-70
2023/03/20 00:05:23;;;;;;;6.20;5.60;;;8.20;76.20;;;;;;5056187;28;20407;-76
2023/03/20 00:07:49;;;;;;;6.90;6.20;;;8.10;57.50;;;;;;5055998;28;20484;-73
2023/03/20 00:10:18;;;;;;;7.27;4.87;;;8.00;43.10;;;;;;5035987;28;20438;-74
2023/03/20 00:12:47;;;;;;;8.63;5.17;;;8.00;41.30;;;;;;5035957;28;20420;-73
2023/03/20 00:15:41;;;;;;;8.17;5.47;;;8.00;41.00;;;;;;5035580;28;20403;-74
2023/03/20 00:18:13;;;;;;;11.37;5.73;;;8.00;31.00;;;;;;5036264;28;20530;-74
2023/03/20 00:20:39;;;;;;;9.40;5.97;;;7.90;30.90;;;;;;5035267;28;20386;-73
2023/03/20 00:23:05;;;;;;;7.20;5.20;;;7.80;30.80;;;;;;5035253;28;22472;-74
2023/03/20 00:25:31;;;;;;;6.77;6.10;;;7.70;41.30;;;;;;5035748;28;20509;-74
2023/03/20 00:27:57;;;;;;;6.20;5.60;;;7.70;61.30;;;;;;5035756;28;20204;-74
2023/03/20 00:30:29;;;;;;;8.47;5.77;;;7.70;72.50;;;;;;5034226;28;21252;-70
2023/03/20 00:32:57;;;;;;;6.37;5.50;;;7.60;79.30;;;;;;5033920;28;20295;-72
2023/03/20 00:35:23;;;;;;;11.57;6.40;;;7.60;87.40;;;;;;5035508;28;20456;-73
2023/03/20 00:37:49;;;;;;;11.20;5.30;;;7.60;89.80;;;;;;5034942;28;20434;-70
2023/03/20 00:40:16;;;;;;;4.67;4.23;;;7.60;92.40;;;;;;5034567;28;20173;-75
2023/03/20 00:42:43;;;;;;;8.00;4.90;;;7.60;93.60;;;;;;5034361;28;20462;-70
2023/03/20 00:45:17;;;;;;;6.13;5.60;;;7.50;93.90;;;;;;5037391;28;20448;-70
2023/03/20 00:47:44;;;;;;;6.17;4.73;;;7.50;94.10;;;;;;5055356;28;20404;-74
2023/03/20 00:50:22;;;;;;;6.23;4.07;;;7.40;94.90;;;;;;5054252;28;20417;-70
2023/03/20 00:52:49;;;;;;;6.33;5.30;;;7.50;99.30;;;;;;5041398;28;20436;-74
2023/03/20 00:55:15;;;;;;;6.33;5.57;;;7.40;99.90;;;;;;5034997;28;20493;-71
2023/03/20 00:57:51;;;;;;;9.10;5.67;;;7.50;99.90;;;;;;5035190;28;20490;-75
2023/03/20 01:00:32;;;;;;;7.00;5.97;;;7.50;99.90;;;;;;5049685;28;20444;-75
2023/03/20 01:02:57;;;;;;;5.03;4.57;;;7.40;99.90;;;;;;5054665;28;20449;-73
2023/03/20 01:05:26;;;;;;;5.67;4.50;;;7.40;99.10;;;;;;5048838;28;20886;-70
2023/03/20 01:07:52;;;;;;;5.00;4.50;;;7.30;94.10;;;;;;5035171;28;20406;-71
2023/03/20 01:10:18;;;;;;;3.53;3.23;;;7.20;89.00;;;;;;5033981;28;20451;-74
2023/03/20 01:12:45;;;;;;;6.00;5.17;;;7.00;78.90;;;;;;5034142;28;20539;-74
2023/03/20 01:15:20;;;;;;;7.27;4.40;;;7.00;78.90;;;;;;5033485;28;20437;-75
2023/03/20 01:17:47;;;;;;;6.73;6.03;;;7.10;79.00;;;;;;5034894;28;20456;-70
2023/03/20 01:20:26;;;;;;;8.70;6.67;;;7.10;79.00;;;;;;5033352;28;20533;-70
2023/03/20 01:22:52;;;;;;;8.30;6.70;;;7.10;79.00;;;;;;5034682;28;20850;-74
2023/03/20 01:25:18;;;;;;;8.23;7.43;;;7.00;72.50;;;;;;5034842;28;20949;-74
2023/03/20 01:27:50;;;;;;;7.40;6.60;;;7.10;77.00;;;;;;5033622;28;20410;-74
2023/03/20 01:30:26;;;;;;;6.60;5.57;;;7.00;61.80;;;;;;5033077;28;20413;-70
2023/03/20 01:32:53;;;;;;;13.50;6.70;;;7.00;41.60;;;;;;5034302;28;20454;-70
2023/03/20 01:35:21;;;;;;;5.97;4.60;;;6.90;38.10;;;;;;5033960;28;20821;-70
2023/03/20 01:37:47;;;;;;;5.30;4.80;;;6.80;22.60;;;;;;5034384;28;20764;-70
2023/03/20 01:40:28;;;;;;;6.67;5.37;;;6.80;15.70;;;;;;5033585;28;20402;-75
2023/03/20 01:42:54;;;;;;;10.53;6.43;;;6.80;11.10;;;;;;5040065;28;20445;-70
2023/03/20 01:45:24;;;;;;;11.70;8.17;;;6.70;8.60;;;;;;5052995;28;20500;-69
2023/03/20 01:47:50;;;;;;;9.30;7.97;;;6.60;12.60;;;;;;5053645;28;20174;-74
2023/03/20 01:50:25;;;;;;;8.20;7.30;;;6.70;29.90;;;;;;5032993;28;20508;-71
2023/03/20 01:53:06;;;;;;;10.00;7.87;;;6.70;29.80;;;;;;5033824;28;20826;-72
2023/03/20 01:55:33;;;;;;;16.63;8.70;;;6.60;28.00;;;;;;5034125;28;20891;-70
2023/03/20 01:58:02;;;;;;;8.07;7.23;;;6.50;29.80;;;;;;5051065;28;20427;-74
2023/03/20 02:00:27;;;;;;;7.73;6.73;;;6.40;30.40;;;;;;5050918;28;20429;-70
2023/03/20 02:02:54;;;;;;;8.37;6.77;;;6.40;44.50;;;;;;5051702;28;20459;-70
2023/03/20 02:05:21;;;;;;;9.47;6.60;;;6.40;40.00;;;;;;5053853;28;20289;-71
2023/03/20 02:08:01;;;;;;;7.63;6.03;;;6.40;42.90;;;;;;5053201;28;20382;-69
2023/03/20 02:10:27;;;;;;;8.90;7.43;;;6.40;44.20;;;;;;5052535;28;20440;-69
2023/03/20 02:12:54;;;;;;;7.40;6.47;;;6.40;36.00;;;;;;5052751;28;20644;-70
2023/03/20 02:15:19;;;;;;;8.13;5.50;;;6.40;38.60;;;;;;5036263;28;20426;-74
2023/03/20 02:17:45;;;;;;;8.70;6.37;;;6.50;46.50;;;;;;5033727;28;20412;-70
2023/03/20 02:20:29;;;;;;;7.37;6.63;;;6.60;48.90;;;;;;5032786;28;20161;-70
2023/03/20 02:23:37;;;;;;;5.73;5.23;;;6.60;49.50;;;;;;5033097;28;20445;-74
2023/03/20 02:26:43;;;;;;;6.80;5.67;;;6.60;44.40;;;;;;5049952;28;20455;-70
2023/03/20 02:29:29;;;;;;;7.03;6.37;;;6.60;42.20;;;;;;5031979;28;20806;-74
2023/03/20 02:32:15;;;;;;;6.93;6.30;;;6.60;35.40;;;;;;5041438;28;20512;-73
2023/03/20 02:35:27;;;;;;;6.40;5.67;;;6.60;44.10;;;;;;5032298;28;20444;-73
2023/03/20 02:38:11;;;;;;;6.47;5.80;;;6.50;50.50;;;;;;5041580;28;20442;-70
2023/03/20 02:40:49;;;;;;;7.30;5.83;;;6.60;62.70;;;;;;5036790;28;20421;-70
2023/03/20 02:43:29;;;;;;;9.27;6.10;;;6.50;63.90;;;;;;5042847;28;21025;-70
2023/03/20 02:46:10;;;;;;;10.03;5.60;;;6.60;72.60;;;;;;5033001;28;20572;-70
2023/03/20 02:48:39;;;;;;;8.07;7.27;;;6.50;77.00;;;;;;5045954;28;20975;-74
2023/03/20 02:51:18;;;;;;;7.67;6.70;;;6.50;87.80;;;;;;5037353;28;20532;-74
2023/03/20 02:53:56;;;;;;;8.70;6.83;;;6.50;94.80;;;;;;5033038;28;20529;-74
2023/03/20 02:56:31;;;;;;;7.13;6.40;;;6.60;99.90;;;;;;5034739;28;20508;-74
2023/03/20 02:59:03;;;;;;;8.13;6.57;;;6.60;99.90;;;;;;5053055;28;20800;-74
2023/03/20 03:02:15;;;;;;;11.40;8.00;;;6.60;99.90;;;;;;5048527;28;21060;-72
2023/03/20 03:04:50;;;;;;;7.77;6.90;;;6.70;99.90;;;;;;5032899;28;20438;-71
2023/03/20 03:07:21;;;;;;;9.63;7.03;;;6.60;99.90;;;;;;5031756;28;20444;-73
2023/03/20 03:09:55;;;;;;;8.80;7.07;;;6.70;99.90;;;;;;5033032;28;20743;-74
2023/03/20 03:12:26;;;;;;;9.63;6.60;;;6.70;99.90;;;;;;5044708;28;20529;-74
2023/03/20 03:14:56;;;;;;;6.67;5.20;;;6.60;99.90;;;;;;5051753;28;20397;-74
2023/03/20 03:17:26;;;;;;;7.13;5.00;;;6.50;99.90;;;;;;5031657;28;20930;-74
2023/03/20 03:19:59;;;;;;;7.97;6.33;;;6.50;99.90;;;;;;5032281;28;20445;-72
2023/03/20 03:22:26;;;;;;;5.20;4.60;;;6.50;99.90;;;;;;5032139;28;20421;-73
2023/03/20 03:24:53;;;;;;;6.03;4.33;;;6.60;99.90;;;;;;5036313;28;20425;-70
2023/03/20 03:27:26;;;;;;;6.00;4.43;;;6.60;99.90;;;;;;5036910;28;20493;-72
2023/03/20 03:30:02;;;;;;;7.30;4.70;;;6.50;99.90;;;;;;5036309;28;20857;-74
2023/03/20 03:32:38;;;;;;;6.00;4.43;;;6.60;99.90;;;;;;5036109;28;20566;-73
2023/03/20 03:35:05;;;;;;;6.13;4.30;;;6.60;99.90;;;;;;5035754;28;20413;-74
2023/03/20 03:38:02;;;;;;;5.50;4.00;;;6.60;99.90;;;;;;5036612;28;20410;-75
2023/03/20 03:41:05;;;;;;;5.77;4.70;;;6.70;99.90;;;;;;5035231;28;20913;-70
2023/03/20 03:43:36;;;;;;;4.83;4.33;;;6.70;99.90;;;;;;5037147;28;20406;-73
2023/03/20 03:46:18;;;;;;;6.77;4.27;;;6.70;99.90;;;;;;5055529;28;20928;-73
2023/03/20 03:48:51;;;;;;;4.83;4.30;;;6.60;99.90;;;;;;5055435;28;20425;-71
2023/03/20 03:51:22;;;;;;;5.03;4.13;;;6.70;99.90;;;;;;5055422;28;20429;-70
2023/03/20 03:54:00;;;;;;;6.50;4.57;;;6.70;99.90;;;;;;5055209;28;20829;-70
2023/03/20 03:56:29;;;;;;;6.00;4.70;;;6.80;99.90;;;;;;5054212;28;20405;-71
2023/03/20 03:59:03;;;;;;;5.00;4.60;;;6.80;99.90;;;;;;5047691;28;20456;-71
2023/03/20 04:01:34;;;;;;;5.50;4.90;;;6.80;99.90;;;;;;5035258;28;20410;-73
2023/03/20 04:04:01;;;;;;;5.47;5.00;;;6.80;99.90;;;;;;5036307;28;20386;-74
2023/03/20 04:06:27;;;;;;;6.57;5.87;;;6.80;99.90;;;;;;5038672;28;20769;-74
2023/03/20 04:08:54;;;;;;;4.63;4.23;;;6.70;99.90;;;;;;5054864;28;20492;-75
2023/03/20 04:11:23;;;;;;;6.00;5.53;;;6.70;99.90;;;;;;5055176;28;20409;-74
2023/03/20 04:13:50;;;;;;;6.63;5.30;;;6.80;99.90;;;;;;5035586;28;20790;-71
2023/03/20 04:16:17;;;;;;;9.40;5.47;;;6.80;99.90;;;;;;5034623;28;20376;-75
2023/03/20 04:18:44;;;;;;;8.10;5.63;;;6.70;98.60;;;;;;5034570;28;20407;-74
2023/03/20 04:21:10;;;;;;;9.00;5.80;;;6.70;98.10;;;;;;5034555;28;20448;-74
2023/03/20 04:23:36;;;;;;;8.70;4.30;;;6.60;97.80;;;;;;5035900;28;20395;-70
2023/03/20 04:26:03;;;;;;;5.57;4.33;;;6.60;99.90;;;;;;5035714;28;20402;-73
2023/03/20 04:28:29;;;;;;;8.33;6.20;;;6.60;99.90;;;;;;5035272;28;20433;-74
2023/03/20 04:30:56;;;;;;;7.00;5.03;;;6.60;99.90;;;;;;5034890;28;20391;-73
2023/03/20 04:33:24;;;;;;;5.20;4.70;;;6.60;99.90;;;;;;5034314;28;20998;-74
2023/03/20 04:35:50;;;;;;;5.43;4.93;;;6.70;99.90;;;;;;5033821;28;20517;-74
2023/03/20 04:38:16;;;;;;;5.50;4.97;;;6.70;99.90;;;;;;5035415;28;20391;-70
2023/03/20 04:40:43;;;;;;;3.97;3.67;;;6.70;99.90;;;;;;5034269;28;20513;-71
2023/03/20 04:43:09;;;;;;;5.43;4.93;;;6.70;99.90;;;;;;5035475;28;20414;-70
2023/03/20 04:45:35;;;;;;;6.90;5.10;;;6.70;99.90;;;;;;5035491;28;20538;-70
2023/03/20 04:48:01;;;;;;;5.87;5.13;;;6.60;99.90;;;;;;5035369;28;20430;-74
2023/03/20 04:50:27;;;;;;;6.00;5.40;;;6.60;99.90;;;;;;5053074;28;20195;-70
2023/03/20 04:52:53;;;;;;;6.50;5.87;;;6.60;99.90;;;;;;5055117;28;20472;-74
2023/03/20 04:55:18;;;;;;;9.67;6.47;;;6.70;99.90;;;;;;5048689;28;20422;-74
2023/03/20 04:57:44;;;;;;;7.50;5.77;;;6.70;99.90;;;;;;5034020;28;20611;-74
2023/03/20 05:00:11;;;;;;;7.80;4.77;;;6.80;99.90;;;;;;5045459;28;20171;-73
2023/03/20 05:02:36;;;;;;;6.50;5.90;;;6.90;99.90;;;;;;5054956;28;20930;-69
2023/03/20 05:05:03;;;;;;;9.03;6.63;;;6.80;99.90;;;;;;5054050;28;20448;-74
2023/03/20 05:07:28;;;;;;;10.00;7.97;;;6.80;99.90;;;;;;5054880;28;20182;-70
2023/03/20 05:09:54;;;;;;;10.60;7.00;;;6.80;99.90;;;;;;5040717;28;20434;-75
2023/03/20 05:12:21;;;;;;;9.93;7.47;;;6.80;99.90;;;;;;5032995;28;20298;-73
2023/03/20 05:14:47;;;;;;;14.20;7.30;;;6.70;99.90;;;;;;5034318;28;20640;-70
2023/03/20 05:17:13;;;;;;;6.30;5.63;;;6.70;99.90;;;;;;5034460;28;20433;-74
2023/03/20 05:19:39;;;;;;;12.10;8.47;;;6.80;99.90;;;;;;5034630;28;20203;-73
2023/03/20 05:22:05;;;;;;;12.47;6.40;;;6.80;99.90;;;;;;5033094;28;20195;-73
2023/03/20 05:24:31;;;;;;;7.20;6.60;;;6.80;99.90;;;;;;5033445;28;20960;-74
2023/03/20 05:26:56;;;;;;;7.97;6.47;;;6.80;99.90;;;;;;5034651;28;20167;-70
2023/03/20 05:29:22;;;;;;;8.07;5.87;;;6.70;99.90;;;;;;5034678;28;20410;-70
2023/03/20 05:31:48;;;;;;;7.67;5.80;;;6.70;99.90;;;;;;5048796;28;20241;-74
2023/03/20 05:34:14;;;;;;;7.70;5.60;;;6.70;99.90;;;;;;5053120;28;20422;-74
2023/03/20 05:36:40;;;;;;;7.07;5.50;;;6.80;99.90;;;;;;5054401;28;20171;-70
2023/03/20 05:39:06;;;;;;;6.03;4.53;;;6.80;99.90;;;;;;5034554;28;20423;-74
2023/03/20 05:41:31;;;;;;;9.50;5.93;;;6.80;99.90;;;;;;5033464;28;20418;-75
2023/03/20 05:43:57;;;;;;;5.60;5.10;;;6.80;99.90;;;;;;5034430;28;20164;-73
2023/03/20 05:46:23;;;;;;;8.60;6.00;;;6.80;99.90;;;;;;5051815;28;20183;-70
2023/03/20 05:48:49;;;;;;;6.20;5.40;;;6.80;99.90;;;;;;5052785;28;20171;-70
2023/03/20 05:51:14;;;;;;;7.83;5.60;;;6.80;99.90;;;;;;5044933;28;20184;-70
2023/03/20 05:53:40;;;;;;;10.20;5.80;;;6.80;99.90;;;;;;5033914;28;20897;-71
2023/03/20 05:56:06;;;;;;;6.33;5.73;;;6.80;99.90;;;;;;5034053;28;20404;-73
2023/03/20 05:58:33;;;;;;;5.47;4.97;;;6.90;99.90;;;;;;5034049;28;20164;-71
2023/03/20 06:00:59;;;;;;;6.73;5.67;;;6.90;99.90;;;;;;5041129;28;20422;-72
2023/03/20 06:03:25;;;;;;;7.73;5.30;;;6.90;99.90;;;;;;5034053;28;20882;-73
2023/03/20 06:05:51;;;;;;;13.90;7.87;;;6.90;99.90;;;;;;5034092;28;20636;-71
2023/03/20 06:08:16;;;;;;;9.17;6.60;;;6.90;99.90;;;;;;5033900;28;20167;-71
2023/03/20 06:10:42;;;;;;;16.40;8.90;;;6.90;99.90;;;;;;5029828;28;20644;-76
2023/03/20 06:13:08;;;;;;;9.70;8.33;;;7.00;99.90;;;;;;5036612;28;20234;-74
2023/03/20 06:15:33;;;;;;;11.93;8.30;;;6.90;99.90;;;;;;5033714;28;20172;-71
2023/03/20 06:17:59;;;;;;;13.47;9.60;;;6.90;99.90;;;;;;5033757;28;20164;-71
2023/03/20 06:20:25;;;;;;;12.57;8.60;;;6.90;99.90;;;;;;5032849;28;20160;-71
2023/03/20 06:22:51;;;;;;;16.20;9.90;;;6.90;99.90;;;;;;5032155;28;20894;-75
2023/03/20 06:25:18;;;;;;;12.40;11.10;;;6.90;99.90;;;;;;5033712;28;20412;-70
2023/03/20 06:27:46;;;;;;;15.30;10.60;;;7.00;99.90;;;;;;5039604;28;20400;-71
2023/03/20 06:30:13;;;;;;;18.80;12.10;;;7.00;99.90;;;;;;5051982;28;20386;-71
2023/03/20 06:32:38;;;;;;;11.43;10.20;;;7.00;99.90;;;;;;5049597;28;20460;-71
2023/03/20 06:35:04;;;;;;;14.40;10.80;;;7.10;99.90;;;;;;5038215;28;20417;-74
2023/03/20 06:37:31;;;;;;;15.87;10.20;;;7.00;99.90;;;;;;5032931;28;20171;-75
2023/03/20 06:39:57;;;;;;;15.20;10.07;;;7.00;99.90;;;;;;5033366;28;20401;-75
2023/03/20 06:42:23;;;;;;;18.53;10.33;;;7.10;99.90;;;;;;5031756;28;20449;-73
2023/03/20 06:44:49;;;;;;;12.27;9.20;;;7.10;99.90;;;;;;5032209;28;20417;-75
2023/03/20 06:47:15;;;;;;;10.17;9.13;;;7.10;99.90;;;;;;5033225;28;20405;-71
2023/03/20 06:49:41;;;;;;;12.80;8.40;;;7.10;99.90;;;;;;5034043;28;20214;-74
2023/03/20 06:52:07;;;;;;;17.00;8.90;;;7.10;99.90;;;;;;5031894;28;20475;-75
2023/03/20 06:54:33;;;;;;;17.87;9.23;;;7.10;99.90;;;;;;5032749;28;20434;-71
2023/03/20 06:56:59;;;;;;;22.37;8.60;;;7.10;99.90;;;;;;5033014;28;20402;-70
2023/03/20 06:59:25;;;;;;;10.90;9.60;;;7.10;99.90;;;;;;5032341;28;20242;-75
2023/03/20 07:01:51;;;;;;;18.80;9.47;;;7.10;99.90;;;;;;5032236;28;20194;-69
2023/03/20 07:04:17;;;;;;;12.23;9.40;;;7.20;99.90;;;;;;5032074;28;20418;-71
2023/03/20 07:06:43;;;;;;;11.53;9.70;;;7.10;99.90;;;;;;5032449;28;20229;-74
2023/03/20 07:09:08;;;;;;;23.17;11.37;;;7.10;99.90;;;;;;5033003;28;20293;-71
2023/03/20 07:11:34;;;;;;;19.37;12.20;;;7.20;99.90;;;;;;5030877;28;20237;-75
2023/03/20 07:14:00;;;;;;;16.23;11.40;;;7.20;99.90;;;;;;5032588;28;20164;-74
2023/03/20 07:16:26;;;;;;;20.90;12.40;;;7.20;99.90;;;;;;5033013;28;20190;-75
2023/03/20 07:18:52;;;;;;;11.43;9.20;;;7.30;99.90;;;;;;5032946;28;20410;-74
2023/03/20 07:21:20;;;;;;;13.90;9.10;;;7.30;99.90;;;;;;5031958;28;20223;-74
2023/03/20 07:23:46;;;;;;;15.00;9.33;;;7.30;99.90;;;;;;5031973;28;20476;-73
2023/03/20 07:26:12;;;;;;;17.97;10.87;;;7.40;99.90;;;;;;5031100;28;20411;-70
2023/03/20 07:28:38;;;;;;;15.03;9.60;;;7.40;99.90;;;;;;5047127;28;20435;-74
2023/03/20 07:31:04;;;;;;;17.00;9.33;;;7.40;96.30;;;;;;5051734;28;20405;-75
2023/03/20 07:33:30;;;;;;;11.57;9.13;;;7.40;91.80;;;;;;5051256;28;20242;-70
2023/03/20 07:35:56;;;;;;;12.00;7.97;;;7.40;89.70;;;;;;5052839;28;20760;-74
2023/03/20 07:38:22;;;;;;;10.90;8.40;;;7.40;79.20;;;;;;5042183;28;20422;-71
2023/03/20 07:40:48;;;;;;;9.93;7.50;;;7.50;79.30;;;;;;5030499;28;20403;-70
2023/03/20 07:43:15;;;;;;;8.53;7.03;;;7.50;64.00;;;;;;5048041;28;20449;-74
2023/03/20 07:45:41;;;;;;;8.47;7.20;;;7.50;48.20;;;;;;5052187;28;20451;-71
2023/03/20 07:48:07;;;;;;;11.43;7.00;;;7.60;31.10;;;;;;5051343;28;20414;-74
2023/03/20 07:50:33;;;;;;;10.80;6.53;;;7.60;30.60;;;;;;5050420;28;20198;-74
2023/03/20 07:52:58;;;;;;;10.83;7.13;;;7.60;15.60;;;;;;5034244;28;20294;-75
2023/03/20 07:55:24;;;;;;;7.23;6.63;;;7.50;1.00;;;;;;5036461;28;20206;-71
2023/03/20 07:57:50;;;;;;;9.80;6.70;;;7.60;5.30;;;;;;5052514;28;20245;-75
2023/03/20 08:00:17;;;;;;;6.63;5.40;;;7.60;1.00;;;;;;5047984;28;20202;-71
2023/03/20 08:02:43;;;;;;;6.80;6.07;;;7.60;1.00;;;;;;5031879;28;20543;-74
2023/03/20 08:05:09;;;;;;;12.43;5.50;;;7.60;1.00;;;;;;5032281;28;20492;-75
2023/03/20 08:07:35;;;;;;;9.20;6.67;;;7.70;1.00;;;;;;5031373;28;20505;-75
2023/03/20 08:10:02;;;;;;;5.03;4.63;;;7.70;1.00;;;;;;5030490;28;20510;-74
2023/03/20 08:12:28;;;;;;;8.77;5.90;;;7.70;1.00;;;;;;5034324;28;20599;-75
2023/03/20 08:14:53;;;;;;;7.30;5.70;;;7.80;1.00;;;;;;5037323;28;20450;-70
2023/03/20 08:17:19;;;;;;;5.83;5.27;;;7.70;1.00;;;;;;5036191;28;20174;-76
2023/03/20 08:19:45;;;;;;;6.27;5.27;;;7.70;1.00;;;;;;5035234;28;20194;-75
2023/03/20 08:22:11;;;;;;;6.60;5.93;;;7.80;1.00;;;;;;5035002;28;20497;-70
2023/03/20 08:24:37;;;;;;;5.50;5.00;;;7.80;1.00;;;;;;5049703;28;20187;-74
2023/03/20 08:27:03;;;;;;;12.20;5.27;;;7.90;1.00;;;;;;5038272;28;20445;-74
2023/03/20 08:29:28;;;;;;;10.67;6.00;;;7.90;1.00;;;;;;5034280;28;20172;-73
2023/03/20 08:31:54;;;;;;;10.63;6.67;;;7.90;1.00;;;;;;5040637;28;20207;-70
2023/03/20 08:34:20;;;;;;;7.50;5.73;;;7.80;1.00;;;;;;5035208;28;20171;-70
2023/03/20 08:36:46;;;;;;;8.73;6.43;;;7.80;1.00;;;;;;5036174;28;20787;-74
2023/03/20 08:39:12;;;;;;;6.50;5.40;;;7.90;1.00;;;;;;5034814;28;20659;-70
2023/03/20 08:41:37;;;;;;;6.77;5.60;;;7.90;1.00;;;;;;5035238;28;20657;-75
2023/03/20 08:44:04;;;;;;;9.27;6.43;;;7.90;1.00;;;;;;5049016;28;20167;-71
2023/03/20 08:46:31;;;;;;;7.47;6.20;;;7.90;1.00;;;;;;5034511;28;20907;-74
2023/03/20 08:48:57;;;;;;;9.13;8.13;;;7.90;1.00;;;;;;5035148;28;20947;-75
2023/03/20 08:51:24;;;;;;;10.83;7.40;;;8.00;1.00;;;;;;5045851;28;20499;-71
2023/03/20 08:53:50;;;;;;;10.67;8.67;;;8.00;1.00;;;;;;5054485;28;20449;-75
2023/03/20 08:56:15;;;;;;;10.90;7.67;;;7.90;1.00;;;;;;5036765;28;20437;-71
2023/03/20 08:58:41;;;;;;;11.10;8.83;;;7.90;1.00;;;;;;5035233;28;20175;-70
2023/03/20 09:01:09;;;;;;;13.97;9.20;;;7.90;1.00;;;;;;5034245;28;20190;-74
2023/03/20 09:03:35;;;;;;;13.33;9.43;;;7.80;1.00;;;;;;5035185;28;20182;-75
2023/03/20 09:06:05;;;;;;;16.40;9.20;;;7.80;1.00;;;;;;5045951;28;20429;-74
2023/03/20 09:08:31;;;;;;;14.67;10.63;;;7.80;1.00;;;;;;5055042;28;20402;-75
2023/03/20 09:10:57;;;;;;;13.77;10.60;;;7.90;1.00;;;;;;5039542;28;20429;-74
2023/03/20 09:13:24;;;;;;;17.37;11.67;;;7.90;1.00;;;;;;5034345;28;20461;-75
2023/03/20 09:15:50;;;;;;;14.10;10.87;;;7.90;1.00;;;;;;5034358;28;20172;-75
2023/03/20 09:18:16;;;;;;;18.90;10.70;;;7.90;9.20;;;;;;5034231;28;20440;-75
2023/03/20 09:20:42;;;;;;;16.90;12.07;;;7.90;16.60;;;;;;5034053;28;20489;-76
2023/03/20 09:23:07;;;;;;;18.20;12.20;;;8.00;20.30;;;;;;5034426;28;20493;-75
2023/03/20 09:25:33;;;;;;;15.23;11.57;;;8.00;18.00;;;;;;5034810;28;20270;-70
2023/03/20 09:27:59;;;;;;;14.93;11.90;;;8.00;13.10;;;;;;5034837;28;20172;-74
2023/03/20 09:30:24;;;;;;;18.57;13.37;;;8.00;8.90;;;;;;5040400;28;20843;-75
2023/03/20 09:32:51;;;;;;;21.23;13.70;;;8.10;16.10;;;;;;5044861;28;20222;-76
2023/03/20 09:35:17;;;;;;;18.50;11.77;;;8.20;11.70;;;;;;5034649;28;20171;-75
2023/03/20 09:37:44;;;;;;;18.13;12.60;;;8.10;1.00;;;;;;5033989;28;20506;-75
2023/03/20 09:40:29;;;;;;;16.80;12.03;;;8.10;1.00;;;;;;5032427;28;20487;-71
2023/03/20 09:43:17;;;;;;;17.60;12.73;;;8.10;1.00;;;;;;5033109;28;20786;-71
2023/03/20 09:46:17;;;;;;;23.27;12.83;;;8.20;1.00;;;;;;5034328;28;20503;-71
2023/03/20 09:49:07;;;;;;;19.73;13.33;;;8.20;1.00;;;;;;5038762;28;20474;-75
2023/03/20 09:51:57;;;;;;;24.00;14.73;;;8.30;1.20;;;;;;5047127;28;20864;-71
2023/03/20 09:54:39;;;;;;;20.73;14.80;;;8.20;1.00;;;;;;5035336;28;20876;-73
2023/03/20 09:57:10;;;;;;;20.43;15.43;;;8.30;1.00;;;;;;5032900;28;20402;-75
2023/03/20 09:59:36;;;;;;;17.60;13.43;;;8.30;1.00;;;;;;5040915;28;20523;-74
2023/03/20 10:02:24;;;;;;;21.83;14.53;;;8.30;1.00;;;;;;5053086;28;20389;-72
2023/03/20 10:04:54;;;;;;;21.53;14.37;;;8.30;1.00;;;;;;5053722;28;20386;-75
2023/03/20 10:07:20;;;;;;;20.07;14.77;;;8.30;1.00;;;;;;5044723;28;20527;-71
2023/03/20 10:09:46;;;;;;;22.50;14.30;;;8.30;1.00;;;;;;5032930;28;20438;-75
2023/03/20 10:12:39;;;;;;;20.33;13.53;;;8.30;1.00;;;;;;5030974;28;20497;-72
2023/03/20 10:15:17;;;;;;;21.20;14.60;;;8.30;1.00;;;;;;5033249;28;20436;-75
2023/03/20 10:18:15;;;;;;;21.20;13.53;;;8.40;1.00;;;;;;5032527;28;20430;-72
2023/03/20 10:21:03;;;;;;;21.57;13.00;;;8.30;1.00;;;;;;5031619;28;20516;-72
2023/03/20 10:23:34;;;;;;;23.57;14.17;;;8.30;1.00;;;;;;5033708;28;20942;-73
2023/03/20 10:26:21;;;;;;;20.50;14.17;;;8.30;1.00;;;;;;5033022;28;20396;-74
2023/03/20 10:28:58;;;;;;;24.07;13.80;;;8.30;1.00;;;;;;5037213;28;20467;-74
2023/03/20 10:31:32;;;;;;;18.40;14.00;;;8.30;1.00;;;;;;5032535;28;20423;-74
2023/03/20 10:34:16;;;;;;;21.57;15.67;;;8.40;1.00;;;;;;5032764;28;20939;-71
2023/03/20 10:37:09;;;;;;;25.33;13.53;;;8.40;1.00;;;;;;5033331;28;20495;-74
2023/03/20 10:39:53;;;;;;;21.67;15.00;;;8.40;1.00;;;;;;5033487;28;20520;-71
2023/03/20 10:42:27;;;;;;;23.30;16.20;;;8.30;1.00;;;;;;5040397;28;20453;-74
2023/03/20 10:45:12;;;;;;;20.30;12.90;;;8.30;1.00;;;;;;5052639;28;20405;-74
2023/03/20 10:47:42;;;;;;;17.53;13.07;;;8.30;1.60;;;;;;5051969;28;20410;-74
2023/03/20 10:50:18;;;;;;;23.30;14.40;;;8.20;3.30;;;;;;5052187;28;20433;-71
2023/03/20 10:52:48;;;;;;;25.60;14.90;;;8.30;19.80;;;;;;5052854;28;20419;-71
2023/03/20 10:55:42;;;;;;;17.33;12.67;;;8.40;31.40;;;;;;5045708;28;20461;-71
2023/03/20 10:58:22;;;;;;;21.30;13.80;;;8.40;31.40;;;;;;5030362;28;20476;-71
2023/03/20 11:00:49;;;;;;;19.17;12.30;;;8.40;31.40;;;;;;5031879;28;20428;-73
2023/03/20 11:03:30;;;;;;;20.00;13.23;;;8.40;31.40;;;;;;5050653;28;20464;-71
2023/03/20 11:06:04;;;;;;;17.17;12.07;;;8.40;35.60;;;;;;5052949;28;20416;-74
2023/03/20 11:08:35;;;;;;;16.97;11.67;;;8.40;42.70;;;;;;5050401;28;20406;-76
2023/03/20 11:11:02;;;;;;;20.03;11.57;;;8.40;31.40;;;;;;5032062;28;20598;-72
2023/03/20 11:13:37;;;;;;;19.33;11.63;;;8.40;31.40;;;;;;5032367;28;20513;-72
2023/03/20 11:16:20;;;;;;;17.40;11.77;;;8.40;31.40;;;;;;5032437;28;20525;-74
2023/03/20 11:18:48;;;;;;;14.97;11.10;;;8.40;34.00;;;;;;5032944;28;20487;-76
2023/03/20 11:21:23;;;;;;;16.50;9.70;;;8.40;31.40;;;;;;5035982;28;20471;-77
2023/03/20 11:23:50;;;;;;;22.50;11.43;;;8.40;31.40;;;;;;5052495;28;20781;-73
2023/03/20 11:26:36;;;;;;;16.97;11.90;;;8.40;37.50;;;;;;5052883;28;20884;-73
2023/03/20 11:29:06;;;;;;;12.60;9.73;;;8.50;46.20;;;;;;5052465;28;20816;-76
2023/03/20 11:31:37;;;;;;;13.37;11.20;;;8.50;42.20;;;;;;5046429;28;20493;-76
2023/03/20 11:34:14;;;;;;;16.77;11.20;;;8.50;32.60;;;;;;5031619;28;20467;-73
2023/03/20 11:37:04;;;;;;;20.63;10.47;;;8.50;31.50;;;;;;5031895;28;20422;-72
2023/03/20 11:39:36;;;;;;;15.30;9.83;;;8.60;31.60;;;;;;5032177;28;20411;-73
2023/03/20 11:42:02;;;;;;;21.83;11.80;;;8.50;19.50;;;;;;5031809;28;20431;-71
2023/03/20 11:44:33;;;;;;;13.83;9.97;;;8.60;16.90;;;;;;5032001;28;20497;-76
2023/03/20 11:47:04;;;;;;;16.40;10.93;;;8.60;1.00;;;;;;5056410;28;20394;-72
2023/03/20 11:49:32;;;;;;;19.00;11.20;;;8.60;1.00;;;;;;5048279;28;20517;-75
2023/03/20 11:52:31;;;;;;;17.90;10.10;;;8.60;1.00;;;;;;5043403;28;20474;-72
2023/03/20 11:54:59;;;;;;;17.23;9.93;;;8.70;1.00;;;;;;5055160;28;20820;-76
2023/03/20 11:57:39;;;;;;;12.80;8.20;;;8.60;1.00;;;;;;5055900;28;20455;-72
2023/03/20 12:00:10;;;;;;;17.13;11.20;;;8.70;1.00;;;;;;5053214;28;20579;-78
2023/03/20 12:02:40;;;;;;;17.93;11.80;;;8.60;1.00;;;;;;5043652;28;20478;-75
2023/03/20 12:05:19;;;;;;;13.33;10.13;;;8.60;1.00;;;;;;5054864;28;20448;-76
2023/03/20 12:07:48;;;;;;;18.37;12.07;;;8.60;1.00;;;;;;5056084;28;20417;-74
2023/03/20 12:10:14;;;;;;;16.07;9.80;;;8.70;1.00;;;;;;5055270;28;20888;-76
2023/03/20 12:12:49;;;;;;;15.80;10.30;;;8.70;1.00;;;;;;5055282;28;20462;-78
2023/03/20 12:15:23;;;;;;;18.87;12.13;;;8.70;1.00;;;;;;5037239;28;20437;-75
2023/03/20 12:18:00;;;;;;;17.90;11.07;;;8.60;1.00;;;;;;5035508;28;20802;-73
2023/03/20 12:20:25;;;;;;;24.33;12.50;;;8.70;1.00;;;;;;5035074;28;20886;-76
2023/03/20 12:23:08;;;;;;;16.70;11.90;;;8.70;1.00;;;;;;5035929;28;20414;-75
2023/03/20 12:25:59;;;;;;;16.97;11.10;;;8.80;1.00;;;;;;5035840;28;20643;-72
2023/03/20 12:29:16;;;;;;;17.70;11.20;;;8.70;1.00;;;;;;5034042;28;20768;-76
2023/03/20 12:31:55;;;;;;;21.57;13.60;;;8.70;1.00;;;;;;5043198;28;20848;-75
2023/03/20 12:34:33;;;;;;;21.47;12.57;;;8.80;1.00;;;;;;5052947;28;20426;-74
2023/03/20 12:37:00;;;;;;;17.77;12.73;;;8.90;1.00;;;;;;5042182;28;20919;-73
2023/03/20 12:39:43;;;;;;;15.90;10.53;;;9.00;1.00;;;;;;5035514;28;20513;-73
2023/03/20 12:42:22;;;;;;;18.67;12.13;;;9.00;1.00;;;;;;5034165;28;20452;-75
2023/03/20 12:44:52;;;;;;;22.60;11.83;;;9.00;1.00;;;;;;5035526;28;20390;-72
2023/03/20 12:47:41;;;;;;;17.30;11.13;;;9.10;1.00;;;;;;5053126;28;20441;-75
2023/03/20 12:50:19;;;;;;;14.10;11.20;;;9.10;1.00;;;;;;5054346;28;20492;-73
2023/03/20 12:52:48;;;;;;;13.93;10.37;;;9.10;1.00;;;;;;5055138;28;20791;-75
2023/03/20 12:55:26;;;;;;;15.57;10.93;;;9.20;1.00;;;;;;5051311;28;21017;-72
2023/03/20 12:58:16;;;;;;;15.60;9.93;;;9.30;1.00;;;;;;5033960;28;20441;-72
2023/03/20 13:00:51;;;;;;;16.97;10.37;;;9.30;1.00;;;;;;5032237;28;20649;-75
2023/03/20 13:03:38;;;;;;;22.73;10.27;;;9.20;1.00;;;;;;5035929;28;20460;-74
2023/03/20 13:06:18;;;;;;;17.57;10.37;;;9.10;1.00;;;;;;5056129;28;20809;-75
2023/03/20 13:09:16;;;;;;;13.70;10.10;;;9.10;1.00;;;;;;5037140;28;20526;-74
2023/03/20 13:12:00;;;;;;;14.60;9.80;;;9.20;1.00;;;;;;5032098;28;20501;-75
2023/03/20 13:14:53;;;;;;;11.43;10.23;;;9.30;1.00;;;;;;5045343;28;20444;-76